Time;durP1;ratioP1;P1;durP2;ratioP2;P2;SDS_P1;SDS_P2;PMS_P1;PMS_P2;Temp;Humidity;BMP_temperature;BMP_pressure;BME280_temperature;BME280_humidity;BME280_pressure;Samples;Min_cycle;Max_cycle;Signal;HPM_P1;HPM_P2
2022/04/30 00:00:30;;;;;;;10.60;6.60;;;;;;;;;;4983461;28;20034;-72
2022/04/30 00:02:57;;;;;;;10.93;6.88;;;;;;;;;;4983290;28;20042;-72
2022/04/30 00:05:24;;;;;;;9.40;6.35;;;;;;;;;;4966840;28;20479;-72
2022/04/30 00:07:49;;;;;;;13.13;6.93;;;;;;;;;;4982998;28;20050;-72
2022/04/30 00:10:15;;;;;;;8.90;7.07;;;;;;;;;;4983064;28;20049;-72
2022/04/30 00:12:40;;;;;;;8.10;6.90;;;;;;;;;;4983828;28;20034;-72
2022/04/30 00:15:06;;;;;;;9.10;6.57;;;;;;;;;;4983656;28;20554;-72
2022/04/30 00:17:32;;;;;;;9.55;7.20;;;;;;;;;;4983007;28;20045;-72
2022/04/30 00:19:57;;;;;;;9.15;6.78;;;;;;;;;;4983571;28;20030;-71
2022/04/30 00:22:23;;;;;;;8.48;6.55;;;;;;;;;;4966405;28;20101;-71
2022/04/30 00:24:49;;;;;;;8.40;6.63;;;;;;;;;;4984154;28;20057;-72
2022/04/30 00:27:15;;;;;;;8.70;6.90;;;;;;;;;;4983383;28;20085;-72
2022/04/30 00:29:41;;;;;;;9.88;7.45;;;;;;;;;;4965808;28;20518;-72
2022/04/30 00:32:07;;;;;;;13.05;7.25;;;;;;;;;;4983362;28;20038;-71
2022/04/30 00:34:33;;;;;;;8.93;6.72;;;;;;;;;;4983884;28;20038;-72
2022/04/30 00:37:02;;;;;;;10.40;7.03;;;;;;;;;;4983474;28;20982;-71
2022/04/30 00:39:32;;;;;;;8.82;6.55;;;;;;;;;;4982260;28;20042;-71
2022/04/30 00:41:59;;;;;;;13.38;6.47;;;;;;;;;;4982912;28;20105;-71
2022/04/30 00:44:25;;;;;;;12.48;7.07;;;;;;;;;;4983305;28;20881;-70
2022/04/30 00:46:51;;;;;;;8.80;7.60;;;;;;;;;;4983596;28;20038;-72
2022/04/30 00:49:16;;;;;;;9.95;7.95;;;;;;;;;;4982692;28;20050;-72
2022/04/30 00:51:45;;;;;;;12.02;8.07;;;;;;;;;;4981924;28;20072;-72
2022/04/30 00:54:12;;;;;;;11.73;7.75;;;;;;;;;;4983067;28;20491;-72
2022/04/30 00:56:57;;;;;;;13.10;7.35;;;;;;;;;;4982446;28;20030;-72
2022/04/30 00:59:23;;;;;;;10.85;7.85;;;;;;;;;;4983049;28;20396;-72
2022/04/30 01:01:49;;;;;;;10.45;7.85;;;;;;;;;;4981463;28;20509;-72
2022/04/30 01:04:33;;;;;;;10.75;7.88;;;;;;;;;;4982768;28;20061;-72
2022/04/30 01:07:04;;;;;;;9.73;7.38;;;;;;;;;;4982430;28;20038;-72
2022/04/30 01:09:32;;;;;;;11.75;7.18;;;;;;;;;;4983104;28;20078;-72
2022/04/30 01:12:08;;;;;;;9.75;7.82;;;;;;;;;;4982270;28;20121;-72
2022/04/30 01:14:34;;;;;;;13.07;7.72;;;;;;;;;;4981944;28;20153;-72
2022/04/30 01:17:04;;;;;;;12.77;7.82;;;;;;;;;;4982551;28;20129;-72
2022/04/30 01:19:32;;;;;;;8.90;7.40;;;;;;;;;;4982597;28;20080;-72
2022/04/30 01:21:59;;;;;;;10.90;7.88;;;;;;;;;;4982011;28;20070;-72
2022/04/30 01:24:27;;;;;;;9.60;7.95;;;;;;;;;;4981070;28;20142;-72
2022/04/30 01:26:53;;;;;;;11.38;7.97;;;;;;;;;;4965120;28;20080;-72
2022/04/30 01:29:21;;;;;;;15.18;8.18;;;;;;;;;;4982245;28;20060;-72
2022/04/30 01:37:25;;;;;;;11.68;7.95;;;;;;;;;;4982134;28;20487;-72
2022/04/30 01:39:57;;;;;;;10.60;7.93;;;;;;;;;;4982367;28;20048;-71
2022/04/30 01:42:25;;;;;;;9.38;7.93;;;;;;;;;;4975716;28;20038;-71
2022/04/30 01:44:51;;;;;;;10.27;7.63;;;;;;;;;;4982386;28;20035;-71
2022/04/30 01:47:18;;;;;;;11.43;7.70;;;;;;;;;;4980814;28;20093;-72
2022/04/30 01:49:43;;;;;;;12.07;7.65;;;;;;;;;;4982385;28;20558;-73
2022/04/30 01:52:10;;;;;;;13.20;7.88;;;;;;;;;;4981524;28;20117;-71
2022/04/30 01:54:36;;;;;;;12.18;8.30;;;;;;;;;;4982088;28;20145;-72
2022/04/30 01:57:03;;;;;;;10.27;7.97;;;;;;;;;;4981318;28;20129;-72
2022/04/30 01:59:28;;;;;;;11.85;8.57;;;;;;;;;;4981718;28;20514;-71
2022/04/30 02:01:55;;;;;;;14.57;9.20;;;;;;;;;;4979899;28;20491;-72
2022/04/30 02:04:22;;;;;;;11.38;8.85;;;;;;;;;;4981641;28;20046;-72
2022/04/30 02:06:48;;;;;;;11.52;8.57;;;;;;;;;;4981721;28;20038;-72
2022/04/30 02:09:15;;;;;;;12.93;8.68;;;;;;;;;;4981053;28;20053;-72
2022/04/30 02:11:44;;;;;;;13.25;9.13;;;;;;;;;;4963376;28;20130;-72
2022/04/30 02:14:14;;;;;;;12.43;8.98;;;;;;;;;;4981699;28;20049;-72
2022/04/30 02:16:42;;;;;;;12.70;9.70;;;;;;;;;;4981190;28;20380;-72
2022/04/30 02:19:08;;;;;;;13.50;8.88;;;;;;;;;;4980409;28;20161;-72
2022/04/30 02:21:35;;;;;;;14.68;9.30;;;;;;;;;;4981028;28;20045;-72
2022/04/30 02:24:02;;;;;;;13.38;10.27;;;;;;;;;;4981327;28;20045;-72
2022/04/30 02:26:27;;;;;;;19.38;10.07;;;;;;;;;;4980779;28;20038;-72
2022/04/30 02:28:57;;;;;;;11.15;9.18;;;;;;;;;;4981635;28;20042;-72
2022/04/30 02:31:27;;;;;;;13.13;9.05;;;;;;;;;;4980322;28;20077;-72
2022/04/30 02:33:55;;;;;;;13.82;9.05;;;;;;;;;;4981842;28;20073;-72
2022/04/30 02:36:25;;;;;;;13.43;9.00;;;;;;;;;;4964183;28;20053;-72
2022/04/30 02:38:55;;;;;;;10.52;8.82;;;;;;;;;;4981272;28;20057;-72
2022/04/30 02:41:21;;;;;;;12.68;9.63;;;;;;;;;;4980061;28;20049;-72
2022/04/30 02:43:51;;;;;;;17.67;9.07;;;;;;;;;;4981453;28;20133;-71
2022/04/30 02:46:20;;;;;;;16.45;9.40;;;;;;;;;;4981413;28;20077;-72
2022/04/30 02:48:46;;;;;;;10.48;8.77;;;;;;;;;;4981388;28;20042;-72
2022/04/30 02:51:12;;;;;;;14.75;9.13;;;;;;;;;;4979852;28;20046;-72
2022/04/30 02:53:38;;;;;;;12.45;9.52;;;;;;;;;;4981094;28;20034;-72
2022/04/30 02:56:04;;;;;;;14.02;9.70;;;;;;;;;;4981429;28;20042;-71
2022/04/30 03:01:14;;;;;;;15.07;9.27;;;;;;;;;;4980687;28;20046;-71
2022/04/30 03:04:11;;;;;;;14.40;9.60;;;;;;;;;;4964040;28;20145;-71
2022/04/30 03:06:37;;;;;;;14.73;10.05;;;;;;;;;;4980755;28;20133;-71
2022/04/30 03:09:03;;;;;;;12.73;9.70;;;;;;;;;;4981290;28;20078;-71
2022/04/30 03:11:31;;;;;;;16.63;10.50;;;;;;;;;;4980048;28;20034;-72
2022/04/30 03:13:57;;;;;;;13.38;9.98;;;;;;;;;;4980253;28;20057;-72
2022/04/30 03:21:52;;;;;;;18.80;10.68;;;;;;;;;;4980613;28;20042;-72
2022/04/30 03:24:18;;;;;;;14.35;11.05;;;;;;;;;;4980278;28;20379;-72
2022/04/30 03:26:45;;;;;;;12.07;10.63;;;;;;;;;;4981247;28;20491;-71
2022/04/30 03:29:11;;;;;;;16.30;11.75;;;;;;;;;;4981165;28;20046;-71
2022/04/30 03:31:39;;;;;;;15.52;10.80;;;;;;;;;;4979888;28;20565;-71
2022/04/30 03:34:07;;;;;;;14.43;11.45;;;;;;;;;;4981485;28;20045;-71
2022/04/30 03:36:33;;;;;;;19.70;11.68;;;;;;;;;;4982220;28;20491;-72
2022/04/30 03:38:58;;;;;;;19.58;11.68;;;;;;;;;;4984181;28;20045;-71
2022/04/30 03:41:24;;;;;;;18.17;10.98;;;;;;;;;;4982210;28;20077;-72
2022/04/30 03:43:50;;;;;;;15.93;12.07;;;;;;;;;;4983603;28;20376;-72
2022/04/30 03:46:17;;;;;;;14.60;10.20;;;;;;;;;;4983307;28;20035;-71
2022/04/30 03:48:42;;;;;;;15.10;10.68;;;;;;;;;;4984590;28;20038;-72
2022/04/30 03:51:08;;;;;;;14.60;10.10;;;;;;;;;;4982745;28;20843;-71
2022/04/30 03:53:34;;;;;;;14.50;10.00;;;;;;;;;;4982509;28;20411;-72
2022/04/30 03:56:00;;;;;;;12.63;10.45;;;;;;;;;;4983461;28;20038;-72
2022/04/30 03:58:26;;;;;;;12.65;10.02;;;;;;;;;;4983510;28;20039;-72
2022/04/30 04:00:53;;;;;;;14.35;10.45;;;;;;;;;;4983616;28;20035;-72
2022/04/30 04:03:19;;;;;;;15.10;10.50;;;;;;;;;;4984524;28;20076;-72
2022/04/30 04:05:48;;;;;;;17.33;11.73;;;;;;;;;;4984457;28;20026;-72
2022/04/30 04:08:17;;;;;;;17.88;11.98;;;;;;;;;;4983435;28;20042;-72
2022/04/30 04:10:43;;;;;;;15.63;11.50;;;;;;;;;;4983691;28;20033;-72
2022/04/30 04:18:37;;;;;;;19.83;13.40;;;;;;;;;;4984222;28;20038;-72
2022/04/30 04:21:02;;;;;;;15.98;12.68;;;;;;;;;;4982828;28;20483;-71
2022/04/30 04:23:28;;;;;;;16.13;13.00;;;;;;;;;;4983868;28;20046;-71
2022/04/30 04:26:00;;;;;;;18.00;11.43;;;;;;;;;;4984210;28;20049;-71
2022/04/30 04:28:29;;;;;;;20.73;11.25;;;;;;;;;;4984007;28;20049;-71
2022/04/30 04:30:57;;;;;;;14.88;11.52;;;;;;;;;;4982728;28;20057;-72
2022/04/30 04:33:22;;;;;;;16.48;11.48;;;;;;;;;;4983544;28;20038;-71
2022/04/30 04:35:48;;;;;;;21.48;11.93;;;;;;;;;;4983411;28;20049;-71
2022/04/30 04:38:13;;;;;;;15.80;11.75;;;;;;;;;;4963239;28;20058;-71
2022/04/30 04:40:39;;;;;;;15.43;11.27;;;;;;;;;;4982368;28;20034;-71
2022/04/30 04:43:04;;;;;;;16.23;11.52;;;;;;;;;;4981537;28;20558;-72
2022/04/30 04:45:30;;;;;;;15.00;11.30;;;;;;;;;;4982517;28;20039;-71
2022/04/30 04:47:56;;;;;;;19.02;11.68;;;;;;;;;;4981657;28;20042;-71
2022/04/30 04:50:25;;;;;;;14.15;11.55;;;;;;;;;;4963613;28;20049;-71
2022/04/30 04:52:51;;;;;;;15.95;12.07;;;;;;;;;;4980993;28;20045;-71
2022/04/30 04:55:17;;;;;;;17.05;11.60;;;;;;;;;;4980025;28;20034;-71
2022/04/30 04:57:43;;;;;;;17.73;11.13;;;;;;;;;;4962163;28;20046;-71
2022/04/30 05:00:10;;;;;;;16.67;11.20;;;;;;;;;;4981018;28;20048;-71
2022/04/30 05:02:36;;;;;;;16.25;11.75;;;;;;;;;;4981373;28;20034;-72
2022/04/30 05:05:03;;;;;;;14.38;11.65;;;;;;;;;;4980048;28;20113;-71
2022/04/30 05:07:28;;;;;;;15.95;11.50;;;;;;;;;;4981005;28;20097;-72
2022/04/30 05:09:54;;;;;;;15.05;11.18;;;;;;;;;;4981513;28;20542;-71
2022/04/30 05:12:20;;;;;;;17.67;10.82;;;;;;;;;;4980617;28;20026;-72
2022/04/30 05:14:46;;;;;;;15.48;10.50;;;;;;;;;;4980600;28;20097;-72
2022/04/30 05:17:12;;;;;;;11.88;10.32;;;;;;;;;;4981399;28;20034;-72
2022/04/30 05:19:37;;;;;;;18.02;11.75;;;;;;;;;;4962215;28;20423;-71
2022/04/30 05:22:03;;;;;;;18.65;11.93;;;;;;;;;;4981188;28;20097;-72
2022/04/30 05:24:29;;;;;;;13.25;10.35;;;;;;;;;;4981669;28;20031;-72
2022/04/30 05:26:55;;;;;;;15.52;10.95;;;;;;;;;;4980824;28;20093;-72
2022/04/30 05:29:20;;;;;;;18.25;10.70;;;;;;;;;;4980943;28;20042;-72
2022/04/30 05:31:45;;;;;;;15.75;11.18;;;;;;;;;;4982253;28;20128;-72
2022/04/30 05:34:11;;;;;;;13.85;11.15;;;;;;;;;;4982570;28;20049;-72
2022/04/30 05:36:38;;;;;;;17.23;11.70;;;;;;;;;;4981632;28;20043;-72
2022/04/30 05:39:04;;;;;;;13.32;10.80;;;;;;;;;;4982407;28;20046;-72
2022/04/30 05:41:29;;;;;;;16.95;10.80;;;;;;;;;;4982281;28;20049;-72
2022/04/30 05:43:55;;;;;;;15.85;10.40;;;;;;;;;;4982806;28;20034;-71
2022/04/30 05:46:21;;;;;;;16.08;10.07;;;;;;;;;;4982391;28;20038;-71
2022/04/30 05:48:46;;;;;;;21.05;10.52;;;;;;;;;;4980438;28;20042;-72
2022/04/30 05:51:11;;;;;;;12.75;10.23;;;;;;;;;;4980110;28;20062;-72
2022/04/30 05:53:37;;;;;;;15.32;10.75;;;;;;;;;;4981014;28;20629;-72
2022/04/30 05:56:03;;;;;;;17.88;10.50;;;;;;;;;;4980921;28;20042;-72
2022/04/30 05:58:28;;;;;;;16.52;10.13;;;;;;;;;;4979531;28;20084;-72
2022/04/30 06:00:53;;;;;;;12.90;10.38;;;;;;;;;;4979176;28;20388;-72
2022/04/30 06:03:19;;;;;;;12.70;10.13;;;;;;;;;;4980703;28;20050;-72
2022/04/30 06:05:44;;;;;;;15.55;10.75;;;;;;;;;;4981887;28;20038;-71
2022/04/30 06:08:11;;;;;;;14.95;10.13;;;;;;;;;;4981758;28;20049;-72
2022/04/30 06:10:37;;;;;;;11.75;9.60;;;;;;;;;;4980634;28;20034;-72
2022/04/30 06:13:03;;;;;;;20.95;10.70;;;;;;;;;;4982035;28;20053;-71
2022/04/30 06:15:28;;;;;;;17.48;10.20;;;;;;;;;;4981907;28;20030;-72
2022/04/30 06:17:54;;;;;;;13.20;11.10;;;;;;;;;;4981740;28;20042;-72
2022/04/30 06:20:20;;;;;;;13.00;10.20;;;;;;;;;;4980597;28;20050;-72
2022/04/30 06:22:45;;;;;;;15.85;11.68;;;;;;;;;;4981837;28;20126;-72
2022/04/30 06:25:11;;;;;;;12.75;10.25;;;;;;;;;;4982085;28;20046;-72
2022/04/30 06:27:37;;;;;;;14.80;10.05;;;;;;;;;;4981485;28;20354;-72
2022/04/30 06:30:04;;;;;;;12.10;9.27;;;;;;;;;;4981021;28;20049;-72
2022/04/30 06:32:29;;;;;;;15.43;9.68;;;;;;;;;;4980363;28;20541;-72
2022/04/30 06:34:55;;;;;;;12.35;10.23;;;;;;;;;;4980656;28;20074;-72
2022/04/30 06:37:20;;;;;;;20.67;10.45;;;;;;;;;;4981674;28;20038;-71
2022/04/30 06:39:46;;;;;;;14.60;9.43;;;;;;;;;;4981686;28;20117;-72
2022/04/30 06:42:11;;;;;;;16.65;9.95;;;;;;;;;;4980568;28;20631;-70
2022/04/30 06:44:37;;;;;;;15.95;10.50;;;;;;;;;;4981239;28;20081;-71
2022/04/30 06:47:03;;;;;;;16.90;10.35;;;;;;;;;;4980882;28;20039;-71
2022/04/30 06:49:28;;;;;;;15.50;10.00;;;;;;;;;;4979694;28;20030;-70
2022/04/30 06:51:53;;;;;;;14.15;9.80;;;;;;;;;;4979083;28;20112;-71
2022/04/30 06:57:11;;;;;;;14.32;8.98;;;;;;;;;;4979595;28;20035;-71
2022/04/30 06:59:41;;;;;;;12.23;7.95;;;;;;;;;;4979884;28;20046;-71
2022/04/30 07:02:31;;;;;;;10.20;6.15;;;;;;;;;;4980040;28;20061;-71
2022/04/30 07:04:56;;;;;;;8.13;5.03;;;;;;;;;;4981081;28;20539;-70
2022/04/30 07:07:22;;;;;;;5.13;4.57;;;;;;;;;;4981626;28;20133;-71
2022/04/30 07:09:48;;;;;;;10.32;4.85;;;;;;;;;;4981562;28;20057;-72
2022/04/30 07:12:14;;;;;;;6.20;4.90;;;;;;;;;;4983909;28;20045;-71
2022/04/30 07:14:41;;;;;;;6.18;4.90;;;;;;;;;;4985427;28;20487;-71
2022/04/30 07:17:08;;;;;;;5.68;5.07;;;;;;;;;;4984536;28;20038;-71
2022/04/30 07:19:34;;;;;;;6.32;5.00;;;;;;;;;;4984898;28;20132;-72
2022/04/30 07:22:01;;;;;;;4.82;4.40;;;;;;;;;;4985008;28;20121;-72
2022/04/30 07:24:27;;;;;;;8.93;5.43;;;;;;;;;;4985389;28;20947;-71
2022/04/30 07:26:53;;;;;;;6.15;5.10;;;;;;;;;;4985299;28;20057;-72
2022/04/30 07:29:18;;;;;;;5.97;5.38;;;;;;;;;;4985340;28;20038;-71
2022/04/30 07:31:44;;;;;;;6.72;5.22;;;;;;;;;;4985663;28;20053;-71
2022/04/30 07:34:09;;;;;;;6.10;4.60;;;;;;;;;;4985381;28;20038;-72
2022/04/30 07:36:38;;;;;;;4.95;4.43;;;;;;;;;;4985662;28;20085;-71
2022/04/30 07:39:04;;;;;;;4.75;4.35;;;;;;;;;;4984090;28;20046;-72
2022/04/30 07:41:30;;;;;;;6.95;5.13;;;;;;;;;;4984310;28;20038;-71
2022/04/30 07:43:55;;;;;;;5.63;4.38;;;;;;;;;;4985029;28;20452;-71
2022/04/30 07:46:23;;;;;;;6.40;4.78;;;;;;;;;;4984391;28;20034;-71
2022/04/30 07:48:50;;;;;;;6.05;4.60;;;;;;;;;;4983831;28;20120;-71
2022/04/30 07:51:18;;;;;;;4.60;4.20;;;;;;;;;;4984826;28;20034;-71
2022/04/30 07:53:45;;;;;;;5.22;4.07;;;;;;;;;;4985090;28;20749;-71
2022/04/30 07:56:11;;;;;;;4.68;4.28;;;;;;;;;;4984131;28;20165;-70
2022/04/30 07:58:37;;;;;;;6.80;4.38;;;;;;;;;;4984333;28;20538;-70
2022/04/30 08:01:03;;;;;;;6.93;4.82;;;;;;;;;;4979476;28;20049;-71
2022/04/30 08:03:28;;;;;;;5.90;4.63;;;;;;;;;;4981689;28;20045;-71
2022/04/30 08:05:54;;;;;;;7.43;6.03;;;;;;;;;;4981414;28;21120;-71
2022/04/30 08:08:19;;;;;;;7.53;5.88;;;;;;;;;;4963268;28;20045;-71
2022/04/30 08:10:45;;;;;;;8.05;7.25;;;;;;;;;;4980382;28;20396;-71
2022/04/30 08:13:11;;;;;;;7.72;6.63;;;;;;;;;;4981241;28;20056;-71
2022/04/30 08:15:43;;;;;;;12.30;7.40;;;;;;;;;;4981515;28;21387;-71
2022/04/30 08:18:09;;;;;;;20.08;7.20;;;;;;;;;;4981557;28;20514;-71
2022/04/30 08:20:34;;;;;;;9.57;6.95;;;;;;;;;;4982527;28;20188;-71
2022/04/30 08:23:02;;;;;;;10.38;7.20;;;;;;;;;;4981446;28;20645;-71
2022/04/30 08:25:28;;;;;;;9.55;7.20;;;;;;;;;;4983737;28;20090;-71
2022/04/30 08:27:53;;;;;;;11.35;7.70;;;;;;;;;;4983940;28;20069;-71
2022/04/30 08:30:18;;;;;;;8.45;7.43;;;;;;;;;;4984062;28;20034;-71
2022/04/30 08:32:44;;;;;;;11.93;8.05;;;;;;;;;;4982570;28;20054;-72
2022/04/30 08:35:09;;;;;;;10.50;8.02;;;;;;;;;;4983891;28;20034;-71
2022/04/30 08:37:35;;;;;;;10.52;7.90;;;;;;;;;;4983848;28;20133;-71
2022/04/30 08:40:00;;;;;;;10.77;8.48;;;;;;;;;;4983759;28;20057;-71
2022/04/30 08:42:25;;;;;;;10.30;7.55;;;;;;;;;;4983222;28;20072;-71
2022/04/30 08:44:51;;;;;;;11.20;8.20;;;;;;;;;;4983051;28;20034;-71
2022/04/30 08:47:16;;;;;;;10.82;7.32;;;;;;;;;;4983579;28;20483;-71
2022/04/30 08:49:42;;;;;;;9.75;8.25;;;;;;;;;;4983393;28;20142;-70
2022/04/30 08:52:09;;;;;;;13.10;7.90;;;;;;;;;;4983176;28;20038;-72
2022/04/30 08:54:34;;;;;;;11.32;8.32;;;;;;;;;;4982549;28;20065;-70
2022/04/30 08:57:00;;;;;;;15.00;8.10;;;;;;;;;;4983489;28;20038;-71
2022/04/30 08:59:27;;;;;;;8.45;7.55;;;;;;;;;;4983387;28;20057;-71
2022/04/30 09:01:56;;;;;;;10.82;7.75;;;;;;;;;;4982985;28;20121;-71
2022/04/30 09:04:22;;;;;;;8.95;7.68;;;;;;;;;;4965778;28;20057;-71
2022/04/30 09:06:50;;;;;;;11.90;8.00;;;;;;;;;;4982558;28;20148;-71
2022/04/30 09:09:28;;;;;;;15.82;8.00;;;;;;;;;;4983232;28;20057;-71
2022/04/30 09:11:56;;;;;;;9.38;7.70;;;;;;;;;;4982533;28;20402;-71
2022/04/30 09:14:28;;;;;;;11.18;6.97;;;;;;;;;;4983104;28;20038;-71
2022/04/30 09:17:05;;;;;;;13.13;8.27;;;;;;;;;;4982069;28;20038;-71
2022/04/30 09:19:52;;;;;;;13.18;8.30;;;;;;;;;;4982584;28;20076;-71
2022/04/30 09:22:34;;;;;;;14.88;8.60;;;;;;;;;;4982314;28;20081;-71
2022/04/30 09:25:20;;;;;;;10.45;8.68;;;;;;;;;;4983168;28;20076;-70
2022/04/30 09:27:51;;;;;;;12.35;8.90;;;;;;;;;;4981745;28;20480;-70
2022/04/30 09:30:26;;;;;;;10.77;9.07;;;;;;;;;;4982917;28;20648;-70
2022/04/30 09:33:01;;;;;;;16.38;8.98;;;;;;;;;;4982183;28;20038;-71
2022/04/30 09:38:11;;;;;;;13.27;9.30;;;;;;;;;;4982179;28;20038;-70
2022/04/30 09:40:37;;;;;;;17.17;10.05;;;;;;;;;;4982293;28;20478;-70
2022/04/30 09:43:05;;;;;;;18.75;9.80;;;;;;;;;;4982745;28;20041;-70
2022/04/30 09:45:32;;;;;;;12.15;8.70;;;;;;;;;;4982500;28;20065;-73
2022/04/30 09:47:59;;;;;;;16.25;10.48;;;;;;;;;;4982557;28;20080;-72
2022/04/30 09:56:04;;;;;;;11.95;9.80;;;;;;;;;;4982792;28;20551;-71
2022/04/30 09:58:34;;;;;;;14.10;10.63;;;;;;;;;;4981076;28;20554;-70
2022/04/30 10:01:00;;;;;;;14.50;10.85;;;;;;;;;;4962196;28;20048;-70
2022/04/30 10:03:29;;;;;;;17.65;10.80;;;;;;;;;;4980986;28;20030;-70
2022/04/30 10:06:03;;;;;;;14.30;10.85;;;;;;;;;;4981415;28;20049;-71
2022/04/30 10:08:40;;;;;;;18.52;11.48;;;;;;;;;;4981253;28;20061;-70
2022/04/30 10:11:39;;;;;;;14.95;11.07;;;;;;;;;;4980574;28;20121;-71
2022/04/30 10:14:31;;;;;;;13.65;9.95;;;;;;;;;;4981144;28;20031;-71
2022/04/30 10:17:13;;;;;;;12.75;10.38;;;;;;;;;;4980849;28;21001;-70
2022/04/30 10:19:40;;;;;;;13.68;9.85;;;;;;;;;;4980977;28;20817;-71
2022/04/30 10:22:14;;;;;;;16.08;11.13;;;;;;;;;;4980386;28;20022;-71
2022/04/30 10:24:52;;;;;;;15.98;10.48;;;;;;;;;;4981171;28;20448;-70
2022/04/30 10:27:18;;;;;;;13.27;11.15;;;;;;;;;;4980452;28;20408;-71
2022/04/30 10:29:51;;;;;;;17.33;10.73;;;;;;;;;;4980766;28;20056;-69
2022/04/30 10:32:28;;;;;;;18.00;10.60;;;;;;;;;;4980318;28;20471;-70
2022/04/30 10:34:54;;;;;;;11.32;9.57;;;;;;;;;;4980214;28;20048;-70
2022/04/30 10:37:36;;;;;;;14.27;10.57;;;;;;;;;;4980230;28;20538;-70
2022/04/30 10:40:03;;;;;;;;;;;;;;;;;;4981355;28;20038;-70
2022/04/30 10:42:38;;;;;;;10.52;9.02;;;;;;;;;;4979414;28;19928;-71
2022/04/30 10:45:04;;;;;;;10.95;9.50;;;;;;;;;;4978346;28;20038;-71
2022/04/30 10:47:29;;;;;;;12.00;8.75;;;;;;;;;;4979554;28;20084;-71
2022/04/30 10:49:55;;;;;;;14.73;9.95;;;;;;;;;;4980295;28;20541;-70
2022/04/30 10:52:29;;;;;;;11.15;8.77;;;;;;;;;;4979755;28;20071;-70
2022/04/30 10:54:58;;;;;;;15.02;10.48;;;;;;;;;;4979771;28;20911;-70
2022/04/30 10:57:23;;;;;;;11.98;9.55;;;;;;;;;;4978273;28;20125;-70
2022/04/30 11:00:01;;;;;;;12.40;9.32;;;;;;;;;;4980170;28;20040;-70
2022/04/30 11:02:31;;;;;;;11.07;9.20;;;;;;;;;;4980582;28;20042;-70
2022/04/30 11:04:57;;;;;;;12.23;9.32;;;;;;;;;;4981256;28;20042;-70
2022/04/30 11:07:26;;;;;;;17.70;8.95;;;;;;;;;;4980624;28;20037;-71
2022/04/30 11:09:51;;;;;;;17.48;10.07;;;;;;;;;;4981346;28;20046;-71
2022/04/30 11:12:16;;;;;;;12.30;9.07;;;;;;;;;;4979700;28;20038;-70
2022/04/30 11:14:44;;;;;;;16.65;9.45;;;;;;;;;;4979714;28;20045;-70
2022/04/30 11:17:10;;;;;;;13.00;9.73;;;;;;;;;;4979023;28;20045;-71
2022/04/30 11:19:41;;;;;;;14.32;9.02;;;;;;;;;;4979099;28;20050;-71
2022/04/30 11:22:09;;;;;;;12.75;9.45;;;;;;;;;;4979598;28;20053;-71
2022/04/30 11:24:37;;;;;;;11.50;8.63;;;;;;;;;;4981052;28;20034;-71
2022/04/30 11:27:05;;;;;;;10.40;8.00;;;;;;;;;;4981314;28;20041;-71
2022/04/30 11:29:32;;;;;;;12.00;9.43;;;;;;;;;;4963361;28;20148;-71
2022/04/30 11:31:58;;;;;;;12.00;9.45;;;;;;;;;;4962562;28;20034;-71
2022/04/30 11:34:25;;;;;;;12.52;9.60;;;;;;;;;;4962910;28;20038;-71
2022/04/30 11:36:59;;;;;;;13.65;10.07;;;;;;;;;;4981105;28;20483;-71
2022/04/30 11:39:25;;;;;;;15.80;9.77;;;;;;;;;;4981205;28;20042;-70
2022/04/30 11:41:53;;;;;;;13.73;9.63;;;;;;;;;;4980762;28;20093;-71
2022/04/30 11:44:24;;;;;;;11.63;9.10;;;;;;;;;;4979212;28;20038;-70
2022/04/30 11:46:54;;;;;;;11.52;8.73;;;;;;;;;;4980861;28;20454;-71
2022/04/30 11:49:22;;;;;;;11.80;9.85;;;;;;;;;;4981190;28;20046;-71
2022/04/30 11:51:49;;;;;;;13.20;9.90;;;;;;;;;;4980273;28;21123;-71
2022/04/30 11:54:22;;;;;;;14.05;10.23;;;;;;;;;;4980569;28;20120;-71
2022/04/30 11:56:49;;;;;;;18.30;9.68;;;;;;;;;;4978634;28;20543;-71
2022/04/30 11:59:15;;;;;;;13.73;10.32;;;;;;;;;;4982399;28;20069;-71
2022/04/30 12:01:42;;;;;;;14.82;9.88;;;;;;;;;;4981683;28;20035;-71
2022/04/30 12:04:11;;;;;;;11.88;9.48;;;;;;;;;;4982696;28;20049;-72
2022/04/30 12:06:37;;;;;;;11.82;8.65;;;;;;;;;;4983371;28;20117;-73
2022/04/30 12:09:18;;;;;;;19.48;11.20;;;;;;;;;;4982672;28;20044;-73
2022/04/30 12:11:51;;;;;;;14.38;11.10;;;;;;;;;;4982995;28;20479;-72
2022/04/30 12:14:18;;;;;;;18.73;11.07;;;;;;;;;;4983944;28;20042;-72
2022/04/30 12:16:45;;;;;;;15.68;11.13;;;;;;;;;;4983810;28;20056;-72
2022/04/30 12:24:58;;;;;;;14.50;10.90;;;;;;;;;;4984281;28;20180;-72
2022/04/30 12:27:23;;;;;;;15.00;10.77;;;;;;;;;;4984369;28;20038;-72
2022/04/30 12:30:14;;;;;;;13.45;10.52;;;;;;;;;;4980320;28;20042;-72
2022/04/30 12:32:53;;;;;;;18.08;9.93;;;;;;;;;;4983842;28;20045;-72
2022/04/30 12:35:38;;;;;;;17.17;10.55;;;;;;;;;;4984246;28;20391;-72
2022/04/30 12:38:14;;;;;;;20.75;10.10;;;;;;;;;;4966634;28;20076;-72
2022/04/30 12:40:43;;;;;;;13.00;10.20;;;;;;;;;;4983371;28;20046;-72
2022/04/30 12:43:09;;;;;;;14.00;9.55;;;;;;;;;;4983153;28;20385;-73
2022/04/30 12:45:36;;;;;;;13.57;10.10;;;;;;;;;;4982062;28;20391;-72
2022/04/30 12:48:03;;;;;;;12.65;10.35;;;;;;;;;;4982088;28;20507;-71
2022/04/30 12:50:28;;;;;;;16.52;9.75;;;;;;;;;;4980866;28;20038;-71
2022/04/30 12:52:54;;;;;;;13.95;10.20;;;;;;;;;;4982486;28;20111;-71
2022/04/30 12:55:20;;;;;;;12.10;9.52;;;;;;;;;;4965046;28;20038;-71
2022/04/30 12:57:46;;;;;;;10.80;7.90;;;;;;;;;;4982287;28;20142;-71
2022/04/30 13:00:13;;;;;;;12.38;9.60;;;;;;;;;;4981500;28;20042;-71
2022/04/30 13:02:39;;;;;;;16.10;10.07;;;;;;;;;;4980312;28;20089;-71
2022/04/30 13:05:13;;;;;;;14.18;9.45;;;;;;;;;;4982117;28;20038;-72
2022/04/30 13:07:43;;;;;;;12.18;9.93;;;;;;;;;;4982315;28;20093;-71
2022/04/30 13:15:39;;;;;;;14.32;9.48;;;;;;;;;;4981725;28;20637;-71
2022/04/30 13:18:06;;;;;;;13.80;9.65;;;;;;;;;;4981869;28;20026;-72
2022/04/30 13:20:31;;;;;;;11.93;9.27;;;;;;;;;;4982003;28;20559;-72
2022/04/30 13:22:57;;;;;;;12.65;8.68;;;;;;;;;;4963792;28;20046;-72
2022/04/30 13:25:23;;;;;;;11.27;8.98;;;;;;;;;;4963271;28;20510;-70
2022/04/30 13:27:49;;;;;;;11.88;9.02;;;;;;;;;;4982151;28;20145;-70
2022/04/30 13:30:15;;;;;;;18.17;8.23;;;;;;;;;;4981843;28;20559;-70
2022/04/30 13:32:48;;;;;;;14.68;8.93;;;;;;;;;;4981762;28;20542;-72
2022/04/30 13:35:14;;;;;;;12.65;9.35;;;;;;;;;;4980788;28;20497;-71
2022/04/30 13:37:40;;;;;;;12.15;8.75;;;;;;;;;;4981878;28;20038;-72
2022/04/30 13:40:10;;;;;;;11.35;9.02;;;;;;;;;;4980994;28;20049;-71
2022/04/30 13:42:35;;;;;;;14.93;10.40;;;;;;;;;;4981151;28;20046;-71
2022/04/30 13:45:02;;;;;;;13.90;10.65;;;;;;;;;;4981582;28;20073;-69
2022/04/30 13:47:28;;;;;;;13.98;8.82;;;;;;;;;;4980200;28;20442;-70
2022/04/30 13:49:54;;;;;;;14.98;10.23;;;;;;;;;;4981763;28;20050;-70
2022/04/30 13:52:20;;;;;;;13.80;9.55;;;;;;;;;;4981406;28;20089;-69
2022/04/30 13:54:46;;;;;;;10.07;8.32;;;;;;;;;;4981366;28;20829;-70
2022/04/30 13:57:12;;;;;;;13.68;7.88;;;;;;;;;;4980732;28;20046;-70
2022/04/30 13:59:37;;;;;;;15.18;9.77;;;;;;;;;;4980611;28;20041;-70
2022/04/30 14:02:04;;;;;;;13.75;10.05;;;;;;;;;;4947307;28;20088;-70
2022/04/30 14:04:34;;;;;;;14.32;10.38;;;;;;;;;;4981399;28;20049;-72
2022/04/30 14:07:00;;;;;;;20.23;10.80;;;;;;;;;;4963712;28;20372;-71
2022/04/30 14:09:26;;;;;;;12.40;10.27;;;;;;;;;;4979804;28;20479;-72
2022/04/30 14:11:52;;;;;;;16.15;11.45;;;;;;;;;;4980363;28;20042;-73
2022/04/30 14:18:15;;;;;;;19.00;11.82;;;;;;;;;;4980825;28;20041;-71
2022/04/30 14:19:49;;;;;;;17.05;11.88;;;;;;;;;;4980014;28;20054;-72
2022/04/30 14:22:15;;;;;;;17.83;11.18;;;;;;;;;;4981610;28;20068;-73
2022/04/30 14:24:40;;;;;;;15.90;10.70;;;;;;;;;;4980829;28;20521;-72
2022/04/30 14:27:06;;;;;;;15.52;10.38;;;;;;;;;;4981410;28;20124;-72
2022/04/30 14:29:31;;;;;;;15.82;10.82;;;;;;;;;;4981194;28;20100;-72
2022/04/30 14:31:57;;;;;;;15.20;10.43;;;;;;;;;;4980551;28;20113;-71
2022/04/30 14:34:22;;;;;;;11.82;9.40;;;;;;;;;;4980723;28;20069;-72
2022/04/30 14:36:48;;;;;;;13.23;9.52;;;;;;;;;;4980826;28;20038;-71
2022/04/30 14:39:13;;;;;;;11.20;9.00;;;;;;;;;;4980916;28;20547;-71
2022/04/30 14:41:38;;;;;;;14.05;10.20;;;;;;;;;;4979184;28;20072;-71
2022/04/30 14:44:04;;;;;;;14.55;9.82;;;;;;;;;;4981175;28;20045;-70
2022/04/30 14:46:29;;;;;;;13.05;11.02;;;;;;;;;;4980686;28;20037;-71
2022/04/30 14:48:55;;;;;;;12.63;10.20;;;;;;;;;;4980980;28;20038;-71
2022/04/30 14:51:20;;;;;;;14.10;11.25;;;;;;;;;;4978958;28;20117;-71
2022/04/30 14:53:46;;;;;;;17.75;10.60;;;;;;;;;;4981067;28;20061;-71
2022/04/30 14:56:12;;;;;;;14.43;10.68;;;;;;;;;;4980571;28;20058;-71
2022/04/30 14:58:39;;;;;;;14.30;10.65;;;;;;;;;;4963229;28;21484;-72
2022/04/30 15:01:06;;;;;;;15.75;12.43;;;;;;;;;;4981345;28;20586;-71
2022/04/30 15:03:32;;;;;;;14.98;11.77;;;;;;;;;;4979903;28;20053;-71
2022/04/30 15:05:57;;;;;;;19.58;11.25;;;;;;;;;;4981337;28;20030;-71
2022/04/30 15:08:22;;;;;;;17.92;12.10;;;;;;;;;;4981170;28;20041;-71
2022/04/30 15:10:48;;;;;;;16.88;11.48;;;;;;;;;;4981485;28;20050;-71
2022/04/30 15:13:13;;;;;;;17.63;11.25;;;;;;;;;;4963261;28;20049;-71